sensor_id;sensor_type;location;lat;lon;timestamp;P1;durP1;ratioP1;P2;durP2;ratioP2
70459;SDS011;57920;54.796;9.430;2022-12-18T00:01:00;18.23;;;13.27;;
70459;SDS011;57920;54.796;9.430;2022-12-18T00:03:30;19.23;;;14.43;;
70459;SDS011;57920;54.796;9.430;2022-12-18T00:05:59;23.57;;;15.03;;
70459;SDS011;57920;54.796;9.430;2022-12-18T00:08:25;16.33;;;12.07;;
70459;SDS011;57920;54.796;9.430;2022-12-18T00:10:50;19.57;;;12.70;;
70459;SDS011;57920;54.796;9.430;2022-12-18T00:13:16;18.13;;;13.73;;
70459;SDS011;57920;54.796;9.430;2022-12-18T00:15:41;18.10;;;14.00;;
70459;SDS011;57920;54.796;9.430;2022-12-18T00:18:07;18.13;;;13.43;;
70459;SDS011;57920;54.796;9.430;2022-12-18T00:20:39;15.47;;;11.90;;
70459;SDS011;57920;54.796;9.430;2022-12-18T00:23:05;20.53;;;14.60;;
70459;SDS011;57920;54.796;9.430;2022-12-18T00:25:32;16.73;;;13.73;;
70459;SDS011;57920;54.796;9.430;2022-12-18T00:27:59;19.03;;;13.53;;
70459;SDS011;57920;54.796;9.430;2022-12-18T00:30:25;17.23;;;12.03;;
70459;SDS011;57920;54.796;9.430;2022-12-18T00:32:51;19.33;;;13.47;;
70459;SDS011;57920;54.796;9.430;2022-12-18T00:35:16;17.87;;;13.27;;
70459;SDS011;57920;54.796;9.430;2022-12-18T00:37:42;16.03;;;12.53;;
70459;SDS011;57920;54.796;9.430;2022-12-18T00:40:07;18.37;;;14.03;;
70459;SDS011;57920;54.796;9.430;2022-12-18T00:42:37;16.70;;;11.47;;
70459;SDS011;57920;54.796;9.430;2022-12-18T00:45:27;14.20;;;10.77;;
70459;SDS011;57920;54.796;9.430;2022-12-18T00:47:55;14.50;;;12.00;;
70459;SDS011;57920;54.796;9.430;2022-12-18T00:50:22;12.63;;;10.70;;
70459;SDS011;57920;54.796;9.430;2022-12-18T00:52:48;17.17;;;12.50;;
70459;SDS011;57920;54.796;9.430;2022-12-18T00:55:14;19.20;;;13.87;;
70459;SDS011;57920;54.796;9.430;2022-12-18T00:57:41;15.60;;;13.00;;
70459;SDS011;57920;54.796;9.430;2022-12-18T01:00:07;15.33;;;11.97;;
70459;SDS011;57920;54.796;9.430;2022-12-18T01:02:36;15.63;;;12.80;;
70459;SDS011;57920;54.796;9.430;2022-12-18T01:05:02;18.53;;;14.03;;
70459;SDS011;57920;54.796;9.430;2022-12-18T01:07:27;15.30;;;11.83;;
70459;SDS011;57920;54.796;9.430;2022-12-18T01:09:53;18.07;;;12.47;;
70459;SDS011;57920;54.796;9.430;2022-12-18T01:12:18;14.97;;;11.87;;
70459;SDS011;57920;54.796;9.430;2022-12-18T01:14:44;16.70;;;12.20;;
70459;SDS011;57920;54.796;9.430;2022-12-18T01:17:10;14.93;;;12.00;;
70459;SDS011;57920;54.796;9.430;2022-12-18T01:19:35;17.33;;;12.93;;
70459;SDS011;57920;54.796;9.430;2022-12-18T01:22:01;15.53;;;11.43;;
70459;SDS011;57920;54.796;9.430;2022-12-18T01:24:26;15.10;;;11.73;;
70459;SDS011;57920;54.796;9.430;2022-12-18T01:26:52;16.70;;;12.20;;
70459;SDS011;57920;54.796;9.430;2022-12-18T01:29:17;13.60;;;11.30;;
70459;SDS011;57920;54.796;9.430;2022-12-18T01:31:43;15.00;;;11.60;;
70459;SDS011;57920;54.796;9.430;2022-12-18T01:34:09;14.57;;;10.73;;
70459;SDS011;57920;54.796;9.430;2022-12-18T01:36:35;15.33;;;11.73;;
70459;SDS011;57920;54.796;9.430;2022-12-18T01:39:06;14.93;;;11.33;;
70459;SDS011;57920;54.796;9.430;2022-12-18T01:41:34;14.70;;;11.13;;
70459;SDS011;57920;54.796;9.430;2022-12-18T01:47:18;11.73;;;9.13;;
70459;SDS011;57920;54.796;9.430;2022-12-18T01:49:53;11.50;;;9.00;;
70459;SDS011;57920;54.796;9.430;2022-12-18T01:52:20;17.33;;;11.80;;
70459;SDS011;57920;54.796;9.430;2022-12-18T01:54:47;17.07;;;10.87;;
70459;SDS011;57920;54.796;9.430;2022-12-18T01:57:15;13.40;;;10.73;;
70459;SDS011;57920;54.796;9.430;2022-12-18T01:59:41;17.17;;;11.33;;
70459;SDS011;57920;54.796;9.430;2022-12-18T02:02:10;12.73;;;10.50;;
70459;SDS011;57920;54.796;9.430;2022-12-18T02:04:36;15.90;;;10.87;;
70459;SDS011;57920;54.796;9.430;2022-12-18T02:10:07;10.40;;;8.63;;
70459;SDS011;57920;54.796;9.430;2022-12-18T02:13:02;10.57;;;8.50;;
70459;SDS011;57920;54.796;9.430;2022-12-18T02:15:40;13.43;;;8.43;;
70459;SDS011;57920;54.796;9.430;2022-12-18T02:20:41;11.37;;;10.03;;
70459;SDS011;57920;54.796;9.430;2022-12-18T02:31:29;12.43;;;9.80;;
70459;SDS011;57920;54.796;9.430;2022-12-18T02:34:01;11.37;;;9.83;;
70459;SDS011;57920;54.796;9.430;2022-12-18T02:36:29;14.43;;;10.27;;
70459;SDS011;57920;54.796;9.430;2022-12-18T02:38:58;13.17;;;9.57;;
70459;SDS011;57920;54.796;9.430;2022-12-18T02:41:26;15.17;;;10.27;;
70459;SDS011;57920;54.796;9.430;2022-12-18T02:43:55;12.57;;;9.53;;
70459;SDS011;57920;54.796;9.430;2022-12-18T02:46:41;10.07;;;8.77;;
70459;SDS011;57920;54.796;9.430;2022-12-18T02:51:50;9.13;;;7.67;;
70459;SDS011;57920;54.796;9.430;2022-12-18T02:54:20;14.97;;;9.80;;
70459;SDS011;57920;54.796;9.430;2022-12-18T02:56:53;11.13;;;9.27;;
70459;SDS011;57920;54.796;9.430;2022-12-18T02:59:30;13.30;;;9.57;;
70459;SDS011;57920;54.796;9.430;2022-12-18T03:07:50;10.40;;;9.27;;
70459;SDS011;57920;54.796;9.430;2022-12-18T03:10:25;11.20;;;7.93;;
70459;SDS011;57920;54.796;9.430;2022-12-18T03:12:57;10.10;;;8.67;;
70459;SDS011;57920;54.796;9.430;2022-12-18T03:15:37;12.37;;;9.27;;
70459;SDS011;57920;54.796;9.430;2022-12-18T03:18:17;14.00;;;8.23;;
70459;SDS011;57920;54.796;9.430;2022-12-18T03:20:54;10.00;;;7.23;;
70459;SDS011;57920;54.796;9.430;2022-12-18T03:23:24;10.23;;;7.77;;
70459;SDS011;57920;54.796;9.430;2022-12-18T03:25:54;11.50;;;8.40;;
70459;SDS011;57920;54.796;9.430;2022-12-18T03:28:22;10.03;;;8.40;;
70459;SDS011;57920;54.796;9.430;2022-12-18T03:30:49;10.50;;;8.77;;
70459;SDS011;57920;54.796;9.430;2022-12-18T03:33:24;14.27;;;9.10;;
70459;SDS011;57920;54.796;9.430;2022-12-18T03:35:53;9.60;;;7.97;;
70459;SDS011;57920;54.796;9.430;2022-12-18T03:38:20;10.27;;;8.50;;
70459;SDS011;57920;54.796;9.430;2022-12-18T03:43:52;8.23;;;7.17;;
70459;SDS011;57920;54.796;9.430;2022-12-18T03:47:03;9.33;;;7.10;;
70459;SDS011;57920;54.796;9.430;2022-12-18T03:52:17;10.50;;;7.80;;
70459;SDS011;57920;54.796;9.430;2022-12-18T03:54:50;11.13;;;7.90;;
70459;SDS011;57920;54.796;9.430;2022-12-18T03:57:20;9.10;;;7.03;;
70459;SDS011;57920;54.796;9.430;2022-12-18T03:59:50;10.90;;;8.67;;
70459;SDS011;57920;54.796;9.430;2022-12-18T04:02:21;10.43;;;7.50;;
70459;SDS011;57920;54.796;9.430;2022-12-18T04:04:50;14.97;;;8.10;;
70459;SDS011;57920;54.796;9.430;2022-12-18T04:07:18;10.93;;;8.50;;
70459;SDS011;57920;54.796;9.430;2022-12-18T04:09:46;11.63;;;9.03;;
70459;SDS011;57920;54.796;9.430;2022-12-18T04:12:13;9.93;;;7.10;;
70459;SDS011;57920;54.796;9.430;2022-12-18T04:14:38;9.57;;;7.80;;
70459;SDS011;57920;54.796;9.430;2022-12-18T04:17:04;13.87;;;8.73;;
70459;SDS011;57920;54.796;9.430;2022-12-18T04:19:29;11.67;;;8.77;;
70459;SDS011;57920;54.796;9.430;2022-12-18T04:21:55;12.70;;;9.03;;
70459;SDS011;57920;54.796;9.430;2022-12-18T04:24:21;11.87;;;8.90;;
70459;SDS011;57920;54.796;9.430;2022-12-18T04:26:46;8.70;;;7.90;;
70459;SDS011;57920;54.796;9.430;2022-12-18T04:29:12;9.50;;;6.67;;
70459;SDS011;57920;54.796;9.430;2022-12-18T04:31:37;12.47;;;9.17;;
70459;SDS011;57920;54.796;9.430;2022-12-18T04:34:03;12.20;;;8.83;;
70459;SDS011;57920;54.796;9.430;2022-12-18T04:36:29;10.63;;;7.97;;
70459;SDS011;57920;54.796;9.430;2022-12-18T04:38:54;12.87;;;8.43;;
70459;SDS011;57920;54.796;9.430;2022-12-18T04:41:20;14.40;;;9.00;;
70459;SDS011;57920;54.796;9.430;2022-12-18T04:43:46;9.50;;;7.13;;
70459;SDS011;57920;54.796;9.430;2022-12-18T04:46:11;10.83;;;7.73;;
70459;SDS011;57920;54.796;9.430;2022-12-18T04:48:37;9.60;;;8.67;;
70459;SDS011;57920;54.796;9.430;2022-12-18T04:51:03;10.43;;;8.00;;
70459;SDS011;57920;54.796;9.430;2022-12-18T04:53:29;11.30;;;8.33;;
70459;SDS011;57920;54.796;9.430;2022-12-18T04:56:02;10.20;;;8.47;;
70459;SDS011;57920;54.796;9.430;2022-12-18T04:58:38;7.93;;;6.63;;
70459;SDS011;57920;54.796;9.430;2022-12-18T05:01:05;10.40;;;9.13;;
70459;SDS011;57920;54.796;9.430;2022-12-18T05:03:32;11.07;;;8.83;;
70459;SDS011;57920;54.796;9.430;2022-12-18T05:05:58;11.10;;;9.00;;
70459;SDS011;57920;54.796;9.430;2022-12-18T05:08:24;11.93;;;9.23;;
70459;SDS011;57920;54.796;9.430;2022-12-18T05:10:57;10.03;;;7.70;;
70459;SDS011;57920;54.796;9.430;2022-12-18T05:13:27;10.10;;;8.03;;
70459;SDS011;57920;54.796;9.430;2022-12-18T05:15:54;9.17;;;8.23;;
70459;SDS011;57920;54.796;9.430;2022-12-18T05:18:19;10.30;;;8.07;;
70459;SDS011;57920;54.796;9.430;2022-12-18T05:20:45;9.27;;;7.67;;
70459;SDS011;57920;54.796;9.430;2022-12-18T05:23:11;10.23;;;8.10;;
70459;SDS011;57920;54.796;9.430;2022-12-18T05:25:37;11.50;;;8.27;;
70459;SDS011;57920;54.796;9.430;2022-12-18T05:28:02;10.60;;;8.83;;
70459;SDS011;57920;54.796;9.430;2022-12-18T05:30:28;12.30;;;9.10;;
70459;SDS011;57920;54.796;9.430;2022-12-18T05:32:54;9.23;;;7.17;;
70459;SDS011;57920;54.796;9.430;2022-12-18T05:35:19;12.13;;;9.10;;
70459;SDS011;57920;54.796;9.430;2022-12-18T05:37:45;10.87;;;8.37;;
70459;SDS011;57920;54.796;9.430;2022-12-18T05:40:11;12.50;;;8.63;;
70459;SDS011;57920;54.796;9.430;2022-12-18T05:42:37;13.70;;;8.83;;
70459;SDS011;57920;54.796;9.430;2022-12-18T05:45:02;10.07;;;8.33;;
70459;SDS011;57920;54.796;9.430;2022-12-18T05:47:29;9.70;;;7.43;;
70459;SDS011;57920;54.796;9.430;2022-12-18T05:49:54;12.53;;;8.33;;
70459;SDS011;57920;54.796;9.430;2022-12-18T05:52:20;8.30;;;6.83;;
70459;SDS011;57920;54.796;9.430;2022-12-18T05:54:45;10.80;;;9.07;;
70459;SDS011;57920;54.796;9.430;2022-12-18T05:57:11;10.87;;;8.70;;
70459;SDS011;57920;54.796;9.430;2022-12-18T05:59:37;11.87;;;8.50;;
70459;SDS011;57920;54.796;9.430;2022-12-18T06:02:02;12.43;;;8.63;;
70459;SDS011;57920;54.796;9.430;2022-12-18T06:04:31;12.80;;;9.03;;
70459;SDS011;57920;54.796;9.430;2022-12-18T06:06:57;9.53;;;8.43;;
70459;SDS011;57920;54.796;9.430;2022-12-18T06:09:23;8.60;;;7.40;;
70459;SDS011;57920;54.796;9.430;2022-12-18T06:11:49;11.43;;;8.63;;
70459;SDS011;57920;54.796;9.430;2022-12-18T06:14:16;10.20;;;9.13;;
70459;SDS011;57920;54.796;9.430;2022-12-18T06:16:42;9.73;;;8.67;;
70459;SDS011;57920;54.796;9.430;2022-12-18T06:19:07;8.83;;;7.97;;
70459;SDS011;57920;54.796;9.430;2022-12-18T06:21:39;10.93;;;8.60;;
70459;SDS011;57920;54.796;9.430;2022-12-18T06:24:05;12.03;;;8.57;;
70459;SDS011;57920;54.796;9.430;2022-12-18T06:26:31;11.67;;;8.13;;
70459;SDS011;57920;54.796;9.430;2022-12-18T06:28:56;10.90;;;8.60;;
70459;SDS011;57920;54.796;9.430;2022-12-18T06:31:22;11.37;;;9.10;;
70459;SDS011;57920;54.796;9.430;2022-12-18T06:33:47;12.33;;;9.50;;
70459;SDS011;57920;54.796;9.430;2022-12-18T06:36:13;10.53;;;9.17;;
70459;SDS011;57920;54.796;9.430;2022-12-18T06:38:40;10.43;;;8.93;;
70459;SDS011;57920;54.796;9.430;2022-12-18T06:41:08;13.47;;;9.53;;
70459;SDS011;57920;54.796;9.430;2022-12-18T06:43:34;10.50;;;7.90;;
70459;SDS011;57920;54.796;9.430;2022-12-18T06:46:01;9.77;;;7.80;;
70459;SDS011;57920;54.796;9.430;2022-12-18T06:48:28;13.00;;;9.37;;
70459;SDS011;57920;54.796;9.430;2022-12-18T06:50:53;12.37;;;9.53;;
70459;SDS011;57920;54.796;9.430;2022-12-18T06:53:19;11.63;;;8.97;;
70459;SDS011;57920;54.796;9.430;2022-12-18T06:55:44;11.23;;;8.80;;
70459;SDS011;57920;54.796;9.430;2022-12-18T06:58:10;9.53;;;8.57;;
70459;SDS011;57920;54.796;9.430;2022-12-18T07:00:35;9.87;;;8.57;;
70459;SDS011;57920;54.796;9.430;2022-12-18T07:03:01;13.07;;;8.80;;
70459;SDS011;57920;54.796;9.430;2022-12-18T07:05:27;10.43;;;9.17;;
70459;SDS011;57920;54.796;9.430;2022-12-18T07:07:52;11.93;;;9.10;;
70459;SDS011;57920;54.796;9.430;2022-12-18T07:10:18;13.73;;;10.20;;
70459;SDS011;57920;54.796;9.430;2022-12-18T07:12:43;13.47;;;9.80;;
70459;SDS011;57920;54.796;9.430;2022-12-18T07:15:10;12.33;;;8.90;;
70459;SDS011;57920;54.796;9.430;2022-12-18T07:17:35;11.80;;;9.23;;
70459;SDS011;57920;54.796;9.430;2022-12-18T07:20:01;12.93;;;9.80;;
70459;SDS011;57920;54.796;9.430;2022-12-18T07:22:27;11.23;;;9.07;;
70459;SDS011;57920;54.796;9.430;2022-12-18T07:24:52;11.83;;;9.17;;
70459;SDS011;57920;54.796;9.430;2022-12-18T07:27:18;12.67;;;10.03;;
70459;SDS011;57920;54.796;9.430;2022-12-18T07:29:43;11.90;;;10.03;;
70459;SDS011;57920;54.796;9.430;2022-12-18T07:32:09;11.70;;;8.60;;
70459;SDS011;57920;54.796;9.430;2022-12-18T07:34:35;11.57;;;8.80;;
70459;SDS011;57920;54.796;9.430;2022-12-18T07:37:00;8.90;;;7.50;;
70459;SDS011;57920;54.796;9.430;2022-12-18T07:39:26;12.40;;;8.83;;
70459;SDS011;57920;54.796;9.430;2022-12-18T07:41:52;11.80;;;9.50;;
70459;SDS011;57920;54.796;9.430;2022-12-18T07:44:36;9.33;;;7.43;;
70459;SDS011;57920;54.796;9.430;2022-12-18T07:47:02;10.87;;;8.63;;
70459;SDS011;57920;54.796;9.430;2022-12-18T07:49:27;11.50;;;9.00;;
70459;SDS011;57920;54.796;9.430;2022-12-18T07:51:56;10.07;;;8.87;;
70459;SDS011;57920;54.796;9.430;2022-12-18T07:54:23;11.10;;;8.43;;
70459;SDS011;57920;54.796;9.430;2022-12-18T07:56:49;8.77;;;7.37;;
70459;SDS011;57920;54.796;9.430;2022-12-18T07:59:15;12.00;;;7.80;;
70459;SDS011;57920;54.796;9.430;2022-12-18T08:01:41;12.07;;;9.20;;
70459;SDS011;57920;54.796;9.430;2022-12-18T08:04:06;14.80;;;9.50;;
70459;SDS011;57920;54.796;9.430;2022-12-18T08:06:32;10.57;;;9.10;;
70459;SDS011;57920;54.796;9.430;2022-12-18T08:08:57;9.60;;;8.63;;
70459;SDS011;57920;54.796;9.430;2022-12-18T08:11:24;9.83;;;8.70;;
70459;SDS011;57920;54.796;9.430;2022-12-18T08:13:51;9.40;;;7.00;;
70459;SDS011;57920;54.796;9.430;2022-12-18T08:16:17;11.33;;;7.83;;
70459;SDS011;57920;54.796;9.430;2022-12-18T08:18:43;11.97;;;9.13;;
70459;SDS011;57920;54.796;9.430;2022-12-18T08:21:10;12.43;;;8.80;;
70459;SDS011;57920;54.796;9.430;2022-12-18T08:23:37;10.17;;;8.80;;
70459;SDS011;57920;54.796;9.430;2022-12-18T08:26:03;9.67;;;8.67;;
70459;SDS011;57920;54.796;9.430;2022-12-18T08:28:29;11.70;;;9.27;;
70459;SDS011;57920;54.796;9.430;2022-12-18T08:30:54;10.47;;;8.17;;
70459;SDS011;57920;54.796;9.430;2022-12-18T08:33:20;11.00;;;8.43;;
70459;SDS011;57920;54.796;9.430;2022-12-18T08:35:45;12.87;;;8.83;;
70459;SDS011;57920;54.796;9.430;2022-12-18T08:38:11;9.13;;;7.67;;
70459;SDS011;57920;54.796;9.430;2022-12-18T08:40:36;11.23;;;8.37;;
70459;SDS011;57920;54.796;9.430;2022-12-18T08:43:02;9.33;;;7.87;;
70459;SDS011;57920;54.796;9.430;2022-12-18T08:45:46;9.17;;;6.83;;
70459;SDS011;57920;54.796;9.430;2022-12-18T08:48:12;9.90;;;8.13;;
70459;SDS011;57920;54.796;9.430;2022-12-18T08:50:37;11.77;;;8.23;;
70459;SDS011;57920;54.796;9.430;2022-12-18T08:53:03;8.27;;;7.30;;
70459;SDS011;57920;54.796;9.430;2022-12-18T08:55:28;10.47;;;8.17;;
70459;SDS011;57920;54.796;9.430;2022-12-18T08:57:54;10.23;;;8.03;;
70459;SDS011;57920;54.796;9.430;2022-12-18T09:00:19;11.20;;;7.83;;
70459;SDS011;57920;54.796;9.430;2022-12-18T09:02:45;10.13;;;7.90;;
70459;SDS011;57920;54.796;9.430;2022-12-18T09:05:11;8.67;;;7.40;;
70459;SDS011;57920;54.796;9.430;2022-12-18T09:07:36;8.63;;;7.67;;
70459;SDS011;57920;54.796;9.430;2022-12-18T09:10:02;8.90;;;7.60;;
70459;SDS011;57920;54.796;9.430;2022-12-18T09:12:28;10.00;;;7.37;;
70459;SDS011;57920;54.796;9.430;2022-12-18T09:14:53;8.70;;;7.37;;
70459;SDS011;57920;54.796;9.430;2022-12-18T09:17:19;9.80;;;7.47;;
70459;SDS011;57920;54.796;9.430;2022-12-18T09:19:44;9.10;;;7.53;;
70459;SDS011;57920;54.796;9.430;2022-12-18T09:22:10;9.50;;;7.47;;
70459;SDS011;57920;54.796;9.430;2022-12-18T09:24:35;8.20;;;6.37;;
70459;SDS011;57920;54.796;9.430;2022-12-18T09:27:01;10.00;;;6.60;;
70459;SDS011;57920;54.796;9.430;2022-12-18T09:29:27;8.33;;;7.30;;
70459;SDS011;57920;54.796;9.430;2022-12-18T09:31:53;8.03;;;6.93;;
70459;SDS011;57920;54.796;9.430;2022-12-18T09:34:19;7.30;;;6.60;;
70459;SDS011;57920;54.796;9.430;2022-12-18T09:36:46;8.90;;;6.80;;
70459;SDS011;57920;54.796;9.430;2022-12-18T09:39:12;8.97;;;6.67;;
70459;SDS011;57920;54.796;9.430;2022-12-18T09:41:51;7.97;;;6.20;;
70459;SDS011;57920;54.796;9.430;2022-12-18T09:47:15;6.33;;;5.60;;
70459;SDS011;57920;54.796;9.430;2022-12-18T09:49:45;6.80;;;6.10;;
70459;SDS011;57920;54.796;9.430;2022-12-18T09:52:20;8.73;;;6.37;;
70459;SDS011;57920;54.796;9.430;2022-12-18T09:54:52;7.87;;;6.30;;
70459;SDS011;57920;54.796;9.430;2022-12-18T09:57:22;6.80;;;6.10;;
70459;SDS011;57920;54.796;9.430;2022-12-18T09:59:54;6.77;;;5.97;;
70459;SDS011;57920;54.796;9.430;2022-12-18T10:02:24;4.73;;;4.30;;
70459;SDS011;57920;54.796;9.430;2022-12-18T10:13:04;6.23;;;5.40;;
70459;SDS011;57920;54.796;9.430;2022-12-18T10:15:40;6.30;;;5.50;;
70459;SDS011;57920;54.796;9.430;2022-12-18T10:20:59;5.07;;;4.40;;
70459;SDS011;57920;54.796;9.430;2022-12-18T10:26:09;4.50;;;4.03;;
70459;SDS011;57920;54.796;9.430;2022-12-18T10:28:37;5.83;;;4.87;;
70459;SDS011;57920;54.796;9.430;2022-12-18T10:31:05;5.03;;;4.40;;
70459;SDS011;57920;54.796;9.430;2022-12-18T10:33:53;4.90;;;3.83;;
70459;SDS011;57920;54.796;9.430;2022-12-18T10:36:19;3.63;;;3.33;;
70459;SDS011;57920;54.796;9.430;2022-12-18T10:38:45;3.97;;;3.50;;
70459;SDS011;57920;54.796;9.430;2022-12-18T10:43:42;5.30;;;4.37;;
70459;SDS011;57920;54.796;9.430;2022-12-18T10:48:55;5.03;;;4.30;;
70459;SDS011;57920;54.796;9.430;2022-12-18T10:56:46;4.13;;;3.47;;
70459;SDS011;57920;54.796;9.430;2022-12-18T10:59:12;5.07;;;4.17;;
70459;SDS011;57920;54.796;9.430;2022-12-18T11:04:23;3.67;;;3.20;;
70459;SDS011;57920;54.796;9.430;2022-12-18T11:09:33;5.20;;;3.53;;
70459;SDS011;57920;54.796;9.430;2022-12-18T11:12:14;5.10;;;3.60;;
70459;SDS011;57920;54.796;9.430;2022-12-18T11:14:43;3.73;;;3.33;;
70459;SDS011;57920;54.796;9.430;2022-12-18T11:17:29;4.70;;;3.87;;
70459;SDS011;57920;54.796;9.430;2022-12-18T11:19:59;3.23;;;3.03;;
70459;SDS011;57920;54.796;9.430;2022-12-18T11:22:30;6.47;;;4.40;;
70459;SDS011;57920;54.796;9.430;2022-12-18T11:24:59;5.77;;;3.90;;
70459;SDS011;57920;54.796;9.430;2022-12-18T11:27:26;6.10;;;4.37;;
70459;SDS011;57920;54.796;9.430;2022-12-18T11:30:06;4.07;;;3.70;;
70459;SDS011;57920;54.796;9.430;2022-12-18T11:32:45;4.00;;;3.33;;
70459;SDS011;57920;54.796;9.430;2022-12-18T11:38:43;4.00;;;2.93;;
70459;SDS011;57920;54.796;9.430;2022-12-18T11:40:54;3.50;;;2.90;;
70459;SDS011;57920;54.796;9.430;2022-12-18T11:43:28;4.13;;;3.70;;
70459;SDS011;57920;54.796;9.430;2022-12-18T11:48:41;4.73;;;3.43;;
70459;SDS011;57920;54.796;9.430;2022-12-18T11:51:22;3.30;;;2.90;;
70459;SDS011;57920;54.796;9.430;2022-12-18T11:53:54;3.47;;;3.17;;
70459;SDS011;57920;54.796;9.430;2022-12-18T11:59:04;4.60;;;3.17;;
70459;SDS011;57920;54.796;9.430;2022-12-18T12:01:52;4.73;;;3.40;;
70459;SDS011;57920;54.796;9.430;2022-12-18T12:04:48;3.70;;;3.03;;
70459;SDS011;57920;54.796;9.430;2022-12-18T12:23:36;5.50;;;3.83;;
70459;SDS011;57920;54.796;9.430;2022-12-18T12:26:14;4.10;;;3.50;;
70459;SDS011;57920;54.796;9.430;2022-12-18T12:28:54;3.97;;;3.10;;
70459;SDS011;57920;54.796;9.430;2022-12-18T12:31:38;3.47;;;3.17;;
70459;SDS011;57920;54.796;9.430;2022-12-18T12:39:44;3.77;;;3.47;;
70459;SDS011;57920;54.796;9.430;2022-12-18T12:45:30;3.50;;;2.73;;
70459;SDS011;57920;54.796;9.430;2022-12-18T12:47:58;4.43;;;3.00;;
70459;SDS011;57920;54.796;9.430;2022-12-18T12:50:26;3.50;;;3.13;;
70459;SDS011;57920;54.796;9.430;2022-12-18T12:52:53;4.53;;;3.57;;
70459;SDS011;57920;54.796;9.430;2022-12-18T12:55:25;3.10;;;2.80;;
70459;SDS011;57920;54.796;9.430;2022-12-18T13:00:46;2.93;;;2.63;;
70459;SDS011;57920;54.796;9.430;2022-12-18T13:03:37;3.43;;;3.13;;
70459;SDS011;57920;54.796;9.430;2022-12-18T13:06:33;3.13;;;2.50;;
70459;SDS011;57920;54.796;9.430;2022-12-18T13:09:11;4.80;;;4.40;;
70459;SDS011;57920;54.796;9.430;2022-12-18T13:11:43;3.00;;;2.70;;
70459;SDS011;57920;54.796;9.430;2022-12-18T13:14:33;3.10;;;2.67;;
70459;SDS011;57920;54.796;9.430;2022-12-18T13:19:47;5.03;;;3.50;;
70459;SDS011;57920;54.796;9.430;2022-12-18T13:22:25;3.80;;;3.27;;
70459;SDS011;57920;54.796;9.430;2022-12-18T13:24:55;3.90;;;3.50;;
70459;SDS011;57920;54.796;9.430;2022-12-18T13:38:25;3.27;;;2.97;;
70459;SDS011;57920;54.796;9.430;2022-12-18T13:48:49;3.60;;;3.30;;
70459;SDS011;57920;54.796;9.430;2022-12-18T13:51:31;2.90;;;2.67;;
70459;SDS011;57920;54.796;9.430;2022-12-18T13:53:59;3.87;;;3.47;;
70459;SDS011;57920;54.796;9.430;2022-12-18T13:56:27;3.27;;;2.87;;
70459;SDS011;57920;54.796;9.430;2022-12-18T14:02:30;2.93;;;2.67;;
70459;SDS011;57920;54.796;9.430;2022-12-18T14:04:40;2.70;;;2.50;;
70459;SDS011;57920;54.796;9.430;2022-12-18T14:07:07;4.40;;;3.50;;
70459;SDS011;57920;54.796;9.430;2022-12-18T14:09:42;5.03;;;3.47;;
70459;SDS011;57920;54.796;9.430;2022-12-18T14:12:17;3.90;;;2.90;;
70459;SDS011;57920;54.796;9.430;2022-12-18T14:15:14;2.87;;;2.67;;
70459;SDS011;57920;54.796;9.430;2022-12-18T14:17:57;3.43;;;2.90;;
70459;SDS011;57920;54.796;9.430;2022-12-18T14:20:25;3.40;;;3.10;;
70459;SDS011;57920;54.796;9.430;2022-12-18T14:22:52;3.47;;;3.17;;
70459;SDS011;57920;54.796;9.430;2022-12-18T14:25:19;3.00;;;2.77;;
70459;SDS011;57920;54.796;9.430;2022-12-18T14:27:50;3.03;;;2.63;;
70459;SDS011;57920;54.796;9.430;2022-12-18T14:33:51;3.47;;;3.17;;
70459;SDS011;57920;54.796;9.430;2022-12-18T14:35:58;3.70;;;2.50;;
70459;SDS011;57920;54.796;9.430;2022-12-18T14:38:31;3.17;;;2.87;;
70459;SDS011;57920;54.796;9.430;2022-12-18T14:41:04;4.40;;;3.20;;
70459;SDS011;57920;54.796;9.430;2022-12-18T14:43:32;5.43;;;3.47;;
70459;SDS011;57920;54.796;9.430;2022-12-18T14:46:03;2.93;;;2.73;;
70459;SDS011;57920;54.796;9.430;2022-12-18T14:48:35;3.67;;;3.00;;
70459;SDS011;57920;54.796;9.430;2022-12-18T14:53:36;3.80;;;3.10;;
70459;SDS011;57920;54.796;9.430;2022-12-18T14:56:03;5.67;;;3.20;;
70459;SDS011;57920;54.796;9.430;2022-12-18T14:58:39;5.93;;;2.97;;
70459;SDS011;57920;54.796;9.430;2022-12-18T15:01:17;4.60;;;3.30;;
70459;SDS011;57920;54.796;9.430;2022-12-18T15:03:47;3.27;;;2.93;;
70459;SDS011;57920;54.796;9.430;2022-12-18T15:09:00;2.83;;;2.50;;
70459;SDS011;57920;54.796;9.430;2022-12-18T15:11:49;4.40;;;3.10;;
70459;SDS011;57920;54.796;9.430;2022-12-18T15:17:03;3.77;;;2.80;;
70459;SDS011;57920;54.796;9.430;2022-12-18T15:19:47;2.80;;;2.33;;
70459;SDS011;57920;54.796;9.430;2022-12-18T15:22:18;4.23;;;3.40;;
70459;SDS011;57920;54.796;9.430;2022-12-18T15:24:48;4.70;;;3.37;;
70459;SDS011;57920;54.796;9.430;2022-12-18T15:27:25;4.53;;;3.60;;
70459;SDS011;57920;54.796;9.430;2022-12-18T15:32:49;3.70;;;2.70;;
70459;SDS011;57920;54.796;9.430;2022-12-18T15:35:23;4.10;;;3.00;;
70459;SDS011;57920;54.796;9.430;2022-12-18T15:37:52;5.07;;;3.90;;
70459;SDS011;57920;54.796;9.430;2022-12-18T15:40:20;4.93;;;3.47;;
70459;SDS011;57920;54.796;9.430;2022-12-18T15:42:47;5.90;;;3.77;;
70459;SDS011;57920;54.796;9.430;2022-12-18T15:45:43;3.10;;;2.80;;
70459;SDS011;57920;54.796;9.430;2022-12-18T15:48:14;3.57;;;3.17;;
70459;SDS011;57920;54.796;9.430;2022-12-18T15:50:45;4.60;;;3.40;;
70459;SDS011;57920;54.796;9.430;2022-12-18T15:53:11;3.40;;;3.07;;
70459;SDS011;57920;54.796;9.430;2022-12-18T15:55:36;4.20;;;3.30;;
70459;SDS011;57920;54.796;9.430;2022-12-18T15:58:21;3.77;;;3.20;;
70459;SDS011;57920;54.796;9.430;2022-12-18T16:00:47;4.67;;;3.50;;
70459;SDS011;57920;54.796;9.430;2022-12-18T16:03:13;4.03;;;3.10;;
70459;SDS011;57920;54.796;9.430;2022-12-18T16:05:38;4.53;;;3.90;;
70459;SDS011;57920;54.796;9.430;2022-12-18T16:08:04;4.17;;;3.77;;
70459;SDS011;57920;54.796;9.430;2022-12-18T16:10:29;3.90;;;3.40;;
70459;SDS011;57920;54.796;9.430;2022-12-18T16:12:55;6.57;;;3.90;;
70459;SDS011;57920;54.796;9.430;2022-12-18T16:15:21;3.87;;;3.47;;
70459;SDS011;57920;54.796;9.430;2022-12-18T16:17:46;3.53;;;3.00;;
70459;SDS011;57920;54.796;9.430;2022-12-18T16:20:13;3.77;;;3.40;;
70459;SDS011;57920;54.796;9.430;2022-12-18T16:22:41;4.03;;;3.57;;
70459;SDS011;57920;54.796;9.430;2022-12-18T16:25:15;4.03;;;3.70;;
70459;SDS011;57920;54.796;9.430;2022-12-18T16:27:52;5.17;;;3.87;;
70459;SDS011;57920;54.796;9.430;2022-12-18T16:30:23;4.33;;;3.93;;
70459;SDS011;57920;54.796;9.430;2022-12-18T16:32:52;4.90;;;3.93;;
70459;SDS011;57920;54.796;9.430;2022-12-18T16:35:21;4.67;;;3.77;;
70459;SDS011;57920;54.796;9.430;2022-12-18T16:37:46;5.33;;;3.97;;
70459;SDS011;57920;54.796;9.430;2022-12-18T16:40:13;4.30;;;3.90;;
70459;SDS011;57920;54.796;9.430;2022-12-18T16:42:41;6.23;;;4.27;;
70459;SDS011;57920;54.796;9.430;2022-12-18T16:45:15;3.67;;;3.27;;
70459;SDS011;57920;54.796;9.430;2022-12-18T16:47:41;3.57;;;3.27;;
70459;SDS011;57920;54.796;9.430;2022-12-18T16:50:08;4.73;;;3.80;;
70459;SDS011;57920;54.796;9.430;2022-12-18T16:52:34;4.20;;;3.80;;
70459;SDS011;57920;54.796;9.430;2022-12-18T16:55:00;4.23;;;3.80;;
70459;SDS011;57920;54.796;9.430;2022-12-18T16:57:26;5.57;;;3.87;;
70459;SDS011;57920;54.796;9.430;2022-12-18T16:59:51;4.03;;;3.63;;
70459;SDS011;57920;54.796;9.430;2022-12-18T17:02:18;6.77;;;4.17;;
70459;SDS011;57920;54.796;9.430;2022-12-18T17:04:46;6.47;;;3.97;;
70459;SDS011;57920;54.796;9.430;2022-12-18T17:07:12;4.40;;;3.80;;
70459;SDS011;57920;54.796;9.430;2022-12-18T17:09:38;4.10;;;3.70;;